Hauptseite
METAR-TAF:

METAR-TAF

Flughäfen :

Izmir, Türkei

Breite: 38-30N, Länge: 027-01E, Höhe: 5 m

Beobachtung

Neuester Wetterbericht von vor 15 Stunden und 53 Minuten, um 05:01 UTC
Windstille
Temperatur 9°C
Luftfeuchtigkeit 93%
Luftdruck 1017 hPa
Sichtweite: 7000 m
Aufgelockert bewölkt in der Höhe von 4000 ft
Aufgelockert bewölkt in der Höhe von 10000 ft

METAR: LTBL 080501Z 00000KT 7000 SCT040 SCT100 09/08 Q1017 RESHRA NOSIG RMK RWY17 VRB02KT

Zeit: 23:54 (20:54 UTC)

Prognose

Neuester Wetterbericht von vor 1 Stunde und 14 Minuten, um 19:40 UTC
Gültige Prognose vom 08 um 21 UTC bis 09 um 06 UTC
Wind 2 kt aus unterschiedlichen Richtungen
Sichtweite 10 km oder mehr
keine Wolken unter 1500 m und keine Kumulonimbus oder Gewitterwolken
Wahrscheinlichkeit 30% :
Zeitweise
vom 09 um 03 UTC bis 09 um 06 UTC
Sichtweite: 3500 m
feuchter Dunst

TAF: LTBL 081940Z 0821/0906 VRB02KT CAVOK PROB30 TEMPO 0903/0906 3500 BR

Wetterbeobachtungen und Prognosen von mehr als 4000 Flughäfen (METAR und TAF Bericht).

Die verfügbaren Stationen werden durch gelbe und rote Markierungen auf der Karte dargestellt.

Führen Sie die Maus auf sie, um den Namen der Station zu sehen.

Darauf klicken, um die Beobachtung von Wetterbeobachtungen und Prognosen zu sehen.

Um die Karte zu ändern : klicken Sie auf den grünen Tasten mit einem schwarzen Kreuz Zum Vergrößern, auf den grünen Button mit einem Gedankenstrich zu verkleinern, oder auf die grünen Pfeile für benachbarte Karten.


METAR-TAF: